Libuse, Louisiana
Current Conditions -  °F | °C
As of 10:53 AM on Friday 24 Oct 2014 (Local Time) from KESF Reporting Station
Clear Clear  
Wind Chill: 64°   Ceiling: Unl
Heat Index: 64°   Visibility: 10mi
Dew Point: 52°   Wind: 5mph
Humidity: 65%   Direction: 110°ESE
Pressure: 30.18"   Gusts: NA
Location:  31.35°N, 92.33°W
Report Text: KESF 241553Z AUTO 11004KT 10SM CLR 18/11 A3018 RMK AO2 SLP217 T01780111
Loading
Personal Weather Stations






























Interactive Weather Map
Tropical Storm Tracking
New forecast layout! Learn more

10-Day Weather Forecast

Advertisements
Track Severe Weather on mobile